ADDS METAR Data INFO
IDs: Format: Raw Decoded Include TAF

Data at: 0338 UTC 28 Jun 2017

KDAW 280324Z AUTO 00000KT 5SM BR BKN001 12/11 A2995 RMK AO2 T01220111 $
KDAW 280251Z AUTO 00000KT 10SM FEW002 13/11 A2994 RMK AO2 SLP136 60040 T01280111 51018 $
KDAW 280231Z AUTO 00000KT 10SM SCT001 13/12 A2994 RMK AO2 T01280117 $
KDAW 280222Z AUTO 18003KT 9SM BKN001 13/12 A2993 RMK AO2 T01280117 $
KDAW 280203Z AUTO 00000KT 9SM FEW002 13/12 A2993 RMK AO2 T01330122 $
KDAW 280151Z AUTO 00000KT 10SM FEW043 FEW090 13/12 A2992 RMK AO2 RAE43 SLP128 P0003 T01330122 $
KDAW 280051Z AUTO 00000KT 9SM -RA FEW050 BKN070 OVC090 14/12 A2994 RMK AO2 PK WND 30032/0016 LTG DSNT NE AND SW RAB16 TSB07E38 SLP135 P0037 T01390122 $
KDAW 280044Z AUTO VRB05KT 10SM VCTS -RA SCT032 BKN070 OVC085 14/12 A2993 RMK AO2 PK WND 30032/0016 LTG DSNT NE AND SW RAB16 TSB07E38 P0036 T01390117 $
KDAW 280031Z AUTO 33014G26KT 3SM +TSRA BR FEW018 BKN037 OVC060 14/12 A2992 RMK AO2 PK WND 30032/0016 LTG DSNT N AND SW RAB16 TSB07 P0036 T01390117 $
KDAW 280028Z AUTO 33015G26KT 1 1/2SM +TSRA BR BKN033 OVC060 14/12 A2992 RMK AO2 PK WND 30032/0016 LTG DSNT SW-N RAB16 TSB07 P0035 T01390117 $
KDAW 280024Z AUTO 31019G32KT 3/4SM +TSRA BR BKN020 OVC055 13/11 A2992 RMK AO2 PK WND 30032/0016 LTG DSNT SW AND W RAB16 TSB07 P0032 T01330111 $
KDAW 280017Z AUTO 1 1/4SM -TSRA FEW004 SCT039 OVC055 15/12 A2992 RMK AO2 PK WND 30032/0016 LTG DSNT SW AND W RAB16 TSB07 P0020 T01500122
KDAW 280013Z AUTO 10SM TS FEW016 BKN055 OVC100 17/14 A2993 RMK AO2 LTG DSNT SW AND W TSB07 PRESRR T01670139
KDAW 280001Z AUTO 10004KT 10SM VCTS SCT055 BKN120 17/14 A2990 RMK AO2 LTG DSNT SE-W T01670139
KDAW 272351Z AUTO 10005KT 10SM SCT060 SCT095 BKN120 17/14 A2989 RMK AO2 LTG DSNT SE-W SLP119 60001 T01670139 10250 20167 58008
KDAW 272251Z AUTO 33004KT 10SM FEW023 18/13 A2991 RMK AO2 LTG DSNT N AND SE SLP126 T01780133
KDAW 272151Z AUTO VRB04KT 10SM BKN090 18/14 A2990 RMK AO2 LTG DSNT ALQDS RAE19 SLP121 P0000 T01830139
KDAW 272103Z AUTO 16004KT 10SM -RA BKN030 BKN037 OVC090 17/14 A2991 RMK AO2 LTG DSNT ALQDS P0000 T01720139
KDAW 272051Z AUTO 00000KT 10SM VCTS -RA BKN033 OVC045 17/13 A2992 RMK AO2 LTG DSNT ALQDS RAB30 TSB30E45 SLP128 P0001 60001 T01670133 55007
KDAW 272036Z AUTO VRB05KT 10SM -TSRA SCT037 BKN045 OVC070 19/12 A2992 RMK AO2 LTG DSNT ALQDS RAB30 TSB30 PRESRR P0000 T01890122
KDAW 272020Z AUTO 16010G18KT 10SM VCTS BKN065 OVC080 19/12 A2990 RMK AO2 LTG DSNT ALQDS T01940122
KDAW 271951Z AUTO 16010G17KT 10SM SCT065 SCT075 BKN090 21/12 A2990 RMK AO2 LTG DSNT ALQDS SLP122 T02110122
KDAW 271851Z AUTO 17008KT 10SM BKN065 BKN080 23/11 A2990 RMK AO2 LTG DSNT W SLP122 T02280111
KDAW 271751Z AUTO VRB04KT 10SM SCT085 BKN110 24/12 A2994 RMK AO2 SLP133 T02390122 10244 20156 58020
KDAW 271651Z AUTO 17003KT 10SM FEW100 22/11 A2996 RMK AO2 SLP141 T02170111
KDAW 271551Z AUTO VRB04KT 10SM CLR 21/12 A2999 RMK AO2 SLP151 T02060117
KDAW 271451Z AUTO 00000KT 10SM FEW070 BKN095 BKN110 21/14 A3000 RMK AO2 SLP155 T02060139 50003
KDAW 271351Z AUTO 00000KT 10SM BKN110 19/13 A3000 RMK AO2 SLP155 T01940128
KDAW 271251Z AUTO 00000KT 10SM BKN120 17/13 A3000 RMK AO2 SLP155 T01720128
KDAW 271151Z AUTO 00000KT 10SM SCT110 16/13 A2999 RMK AO2 SLP151 70003 T01560128 10156 20117 50002
KDAW 271051Z AUTO 00000KT 10SM FEW110 14/12 A2999 RMK AO2 SLP152 T01390122
KDAW 270951Z AUTO 00000KT 10SM FEW110 13/12 A2999 RMK AO2 SLP152 T01330117
KDAW 270851Z AUTO 00000KT 10SM CLR 12/11 A2998 RMK AO2 SLP150 T01220106 53005
KDAW 270751Z AUTO 00000KT 10SM SCT120 13/11 A2998 RMK AO2 SLP147 T01330111
KDAW 270651Z AUTO 30004KT 10SM BKN100 14/12 A2997 RMK AO2 SLP145 T01440122
KDAW 270629Z AUTO 30003KT 10SM BKN110 14/12 A2997 RMK AO2 T01390122
KDAW 270622Z AUTO 00000KT 2 1/2SM BR BKN110 14/12 A2997 RMK AO2 T01390122
KDAW 270551Z AUTO 00000KT 10SM SCT090 BKN120 14/12 A2997 RMK AO2 SLP144 60003 T01390117 10211 20139 58001
KDAW 270517Z AUTO 31004KT 3SM BR CLR 14/13 A2997 RMK AO2 T01390128
KDAW 270509Z AUTO 31003KT 1 3/4SM BR CLR 14/12 A2997 RMK AO2 T01390122
KDAW 270451Z AUTO 00000KT 10SM FEW120 14/13 A2997 RMK AO2 RAB0357E20 SLP146 P0000 T01440128 402560144
KDAW 270351Z AUTO 00000KT 10SM FEW065 SCT080 OVC095 16/13 A2997 RMK AO2 RAE00 SLP145 P0000 T01560133
KDAW 270251Z AUTO 00000KT 10SM -RA BKN075 OVC095 16/12 A2997 RMK AO2 RAB24 SLP144 P0003 60003 T01560122 50008
KDAW 270151Z AUTO 00000KT 10SM SCT070 18/10 A2998 RMK AO2 SLP147 T01830100
KDAW 270051Z AUTO 00000KT 10SM CLR 18/11 A2995 RMK AO2 SLP139 T01830106
KDAW 262351Z AUTO 00000KT 10SM BKN100 22/09 A2995 RMK AO2 SLP136 T02170094 10256 20217 51008
KDAW 262251Z AUTO VRB06KT 10SM FEW070 SCT120 23/08 A2994 RMK AO2 SLP136 T02280083
KDAW 262151Z AUTO VRB04KT 10SM OVC100 22/08 A2993 RMK AO2 SLP131 T02220083
KDAW 262051Z AUTO 29004KT 10SM FEW065 OVC090 23/09 A2992 RMK AO2 SLP128 T02280089 55007
KDAW 261951Z AUTO 00000KT 10SM SCT065 BKN080 24/09 A2992 RMK AO2 SLP128 T02440094
KDAW 261851Z AUTO 31006KT 10SM BKN085 24/09 A2993 RMK AO2 SLP131 T02390089
KDAW 261751Z AUTO VRB05G16KT 10SM BKN070 24/09 A2994 RMK AO2 SLP135 T02390094 10244 20183 58003
KDAW 261651Z AUTO VRB05KT 10SM BKN060 22/08 A2995 RMK AO2 SLP137 T02170083
KDAW 261551Z AUTO VRB06KT 10SM BKN055 22/09 A2995 RMK AO2 SLP138 T02220094


Page loaded:  03:38 UTC  |   08:38 PM Pacific  |   09:38 PM Mountain  |   10:38 PM Central  |   11:38 PM Eastern

 

ADVISORIES

FORECASTS

FORECASTS

OBSERVATIONS

USER TOOLS

ABOUT US